sensor_id;sensor_type;location;lat;lon;timestamp;temperature;humidity
70928;SHT31;58587;53.034;18.576;2023-04-25T11:27:20;12.63;60.06
70928;SHT31;58587;53.034;18.576;2023-04-25T11:29:46;12.51;57.08
70928;SHT31;58587;53.034;18.576;2023-04-25T11:32:17;12.52;57.48
70928;SHT31;58587;53.034;18.576;2023-04-25T11:34:44;12.55;57.51
70928;SHT31;58587;53.034;18.576;2023-04-25T11:37:10;12.62;57.90
70928;SHT31;58587;53.034;18.576;2023-04-25T11:39:37;12.72;57.98
70928;SHT31;58587;53.034;18.576;2023-04-25T11:42:03;12.82;57.84
70928;SHT31;58587;53.034;18.576;2023-04-25T11:44:29;12.79;57.67
70928;SHT31;58587;53.034;18.576;2023-04-25T11:46:55;12.91;58.34
70928;SHT31;58587;53.034;18.576;2023-04-25T11:49:20;12.86;57.83
70928;SHT31;58587;53.034;18.576;2023-04-25T11:51:47;13.05;60.33
70928;SHT31;58587;53.034;18.576;2023-04-25T11:54:13;13.09;59.74
70928;SHT31;58587;53.034;18.576;2023-04-25T11:56:45;13.00;58.23
70928;SHT31;58587;53.034;18.576;2023-04-25T11:59:11;12.97;57.81
70928;SHT31;58587;53.034;18.576;2023-04-25T12:01:39;13.05;58.56
70928;SHT31;58587;53.034;18.576;2023-04-25T12:04:16;12.92;58.70
70928;SHT31;58587;53.034;18.576;2023-04-25T12:06:43;12.79;59.00
70928;SHT31;58587;53.034;18.576;2023-04-25T12:09:10;12.71;58.58
70928;SHT31;58587;53.034;18.576;2023-04-25T12:11:43;12.62;59.01
70928;SHT31;58587;53.034;18.576;2023-04-25T12:14:09;12.56;58.39
70928;SHT31;58587;53.034;18.576;2023-04-25T12:16:45;12.48;59.14
70928;SHT31;58587;53.034;18.576;2023-04-25T12:19:14;12.51;59.24
70928;SHT31;58587;53.034;18.576;2023-04-25T12:21:39;12.75;59.70
70928;SHT31;58587;53.034;18.576;2023-04-25T12:24:24;12.89;59.76
70928;SHT31;58587;53.034;18.576;2023-04-25T12:27:24;12.71;59.48
70928;SHT31;58587;53.034;18.576;2023-04-25T12:29:51;12.81;60.21
70928;SHT31;58587;53.034;18.576;2023-04-25T12:32:16;12.91;60.43
70928;SHT31;58587;53.034;18.576;2023-04-25T12:34:43;12.78;59.98
70928;SHT31;58587;53.034;18.576;2023-04-25T12:37:08;12.85;61.04
70928;SHT31;58587;53.034;18.576;2023-04-25T12:39:34;12.82;59.72
70928;SHT31;58587;53.034;18.576;2023-04-25T12:41:59;12.68;59.21
70928;SHT31;58587;53.034;18.576;2023-04-25T12:44:25;12.81;59.35
70928;SHT31;58587;53.034;18.576;2023-04-25T12:46:50;12.88;59.43
70928;SHT31;58587;53.034;18.576;2023-04-25T12:49:16;12.81;58.58
70928;SHT31;58587;53.034;18.576;2023-04-25T12:51:41;13.06;58.77
70928;SHT31;58587;53.034;18.576;2023-04-25T12:54:07;13.20;58.71
70928;SHT31;58587;53.034;18.576;2023-04-25T12:56:33;13.19;58.27
70928;SHT31;58587;53.034;18.576;2023-04-25T12:58:59;13.42;58.87
70928;SHT31;58587;53.034;18.576;2023-04-25T13:01:25;13.44;57.39
70928;SHT31;58587;53.034;18.576;2023-04-25T13:03:51;13.50;58.31
70928;SHT31;58587;53.034;18.576;2023-04-25T13:06:19;13.56;58.57
70928;SHT31;58587;53.034;18.576;2023-04-25T13:08:44;13.68;58.99
70928;SHT31;58587;53.034;18.576;2023-04-25T13:11:10;13.64;58.69
70928;SHT31;58587;53.034;18.576;2023-04-25T13:13:36;13.28;58.90
70928;SHT31;58587;53.034;18.576;2023-04-25T13:16:02;13.36;60.05
70928;SHT31;58587;53.034;18.576;2023-04-25T13:18:28;13.06;59.38
70928;SHT31;58587;53.034;18.576;2023-04-25T13:20:54;13.15;59.78
70928;SHT31;58587;53.034;18.576;2023-04-25T13:23:21;12.96;59.74
70928;SHT31;58587;53.034;18.576;2023-04-25T13:25:47;13.02;60.25
70928;SHT31;58587;53.034;18.576;2023-04-25T13:28:13;12.99;60.57
70928;SHT31;58587;53.034;18.576;2023-04-25T13:30:38;12.97;60.99
70928;SHT31;58587;53.034;18.576;2023-04-25T13:33:04;12.97;61.11
70928;SHT31;58587;53.034;18.576;2023-04-25T13:35:32;13.00;61.36
70928;SHT31;58587;53.034;18.576;2023-04-25T13:37:58;12.99;60.67
70928;SHT31;58587;53.034;18.576;2023-04-25T13:40:23;12.86;60.00
70928;SHT31;58587;53.034;18.576;2023-04-25T13:42:48;12.68;59.81
70928;SHT31;58587;53.034;18.576;2023-04-25T13:45:14;12.69;60.68
70928;SHT31;58587;53.034;18.576;2023-04-25T13:47:39;12.66;59.88
70928;SHT31;58587;53.034;18.576;2023-04-25T13:50:05;12.92;61.12
70928;SHT31;58587;53.034;18.576;2023-04-25T13:52:31;13.00;60.11
70928;SHT31;58587;53.034;18.576;2023-04-25T13:54:57;13.16;60.23
70928;SHT31;58587;53.034;18.576;2023-04-25T13:57:23;13.23;58.82
70928;SHT31;58587;53.034;18.576;2023-04-25T13:59:48;13.35;59.42
70928;SHT31;58587;53.034;18.576;2023-04-25T14:02:13;13.46;58.84
70928;SHT31;58587;53.034;18.576;2023-04-25T14:04:39;13.44;57.68
70928;SHT31;58587;53.034;18.576;2023-04-25T14:07:04;13.84;58.53
70928;SHT31;58587;53.034;18.576;2023-04-25T14:09:30;14.15;57.74
70928;SHT31;58587;53.034;18.576;2023-04-25T14:11:56;14.14;57.32
70928;SHT31;58587;53.034;18.576;2023-04-25T14:14:22;14.09;57.41
70928;SHT31;58587;53.034;18.576;2023-04-25T14:16:49;13.63;55.70
70928;SHT31;58587;53.034;18.576;2023-04-25T14:19:15;13.60;56.49
70928;SHT31;58587;53.034;18.576;2023-04-25T14:21:41;13.71;56.75
70928;SHT31;58587;53.034;18.576;2023-04-25T14:24:06;13.48;57.07
70928;SHT31;58587;53.034;18.576;2023-04-25T14:26:33;13.51;57.55
70928;SHT31;58587;53.034;18.576;2023-04-25T14:28:58;13.27;57.66
70928;SHT31;58587;53.034;18.576;2023-04-25T14:31:24;13.00;58.02
70928;SHT31;58587;53.034;18.576;2023-04-25T14:33:49;12.96;58.82
70928;SHT31;58587;53.034;18.576;2023-04-25T14:36:15;13.05;59.67
70928;SHT31;58587;53.034;18.576;2023-04-25T14:38:40;12.97;59.14
70928;SHT31;58587;53.034;18.576;2023-04-25T14:41:06;13.15;59.68
70928;SHT31;58587;53.034;18.576;2023-04-25T14:43:31;13.17;58.38
70928;SHT31;58587;53.034;18.576;2023-04-25T14:45:56;13.22;58.54
70928;SHT31;58587;53.034;18.576;2023-04-25T14:48:22;13.27;59.03
70928;SHT31;58587;53.034;18.576;2023-04-25T14:50:48;13.16;58.51
70928;SHT31;58587;53.034;18.576;2023-04-25T14:53:13;13.10;58.08
70928;SHT31;58587;53.034;18.576;2023-04-25T14:55:39;13.09;58.71
70928;SHT31;58587;53.034;18.576;2023-04-25T14:58:05;13.10;59.76
70928;SHT31;58587;53.034;18.576;2023-04-25T15:00:30;13.03;59.71
70928;SHT31;58587;53.034;18.576;2023-04-25T15:02:57;12.91;60.16
70928;SHT31;58587;53.034;18.576;2023-04-25T15:05:23;12.76;58.08
70928;SHT31;58587;53.034;18.576;2023-04-25T15:07:48;12.85;57.84
70928;SHT31;58587;53.034;18.576;2023-04-25T15:10:13;12.89;58.34
70928;SHT31;58587;53.034;18.576;2023-04-25T15:12:41;12.88;57.69
70928;SHT31;58587;53.034;18.576;2023-04-25T15:15:08;12.82;58.44
70928;SHT31;58587;53.034;18.576;2023-04-25T15:17:43;12.72;58.49
70928;SHT31;58587;53.034;18.576;2023-04-25T15:20:10;12.71;59.06
70928;SHT31;58587;53.034;18.576;2023-04-25T15:22:39;12.72;59.42
70928;SHT31;58587;53.034;18.576;2023-04-25T15:25:05;12.78;60.35
70928;SHT31;58587;53.034;18.576;2023-04-25T15:27:31;12.78;60.25
70928;SHT31;58587;53.034;18.576;2023-04-25T15:29:57;12.81;60.49
70928;SHT31;58587;53.034;18.576;2023-04-25T15:32:22;12.61;61.45
70928;SHT31;58587;53.034;18.576;2023-04-25T15:34:48;12.44;61.33
70928;SHT31;58587;53.034;18.576;2023-04-25T15:37:13;12.11;61.96
70928;SHT31;58587;53.034;18.576;2023-04-25T15:39:39;11.95;61.60
70928;SHT31;58587;53.034;18.576;2023-04-25T15:42:04;11.91;61.73
70928;SHT31;58587;53.034;18.576;2023-04-25T15:44:29;11.95;61.43
70928;SHT31;58587;53.034;18.576;2023-04-25T15:46:55;11.62;62.77
70928;SHT31;58587;53.034;18.576;2023-04-25T15:49:20;11.56;63.43
70928;SHT31;58587;53.034;18.576;2023-04-25T15:51:49;11.16;63.91
70928;SHT31;58587;53.034;18.576;2023-04-25T15:54:15;11.30;64.51
70928;SHT31;58587;53.034;18.576;2023-04-25T15:56:40;11.37;64.39
70928;SHT31;58587;53.034;18.576;2023-04-25T15:59:05;11.23;65.33
70928;SHT31;58587;53.034;18.576;2023-04-25T16:01:31;11.19;65.75
70928;SHT31;58587;53.034;18.576;2023-04-25T16:03:57;11.01;66.25
70928;SHT31;58587;53.034;18.576;2023-04-25T16:06:25;11.12;66.11
70928;SHT31;58587;53.034;18.576;2023-04-25T16:08:51;10.84;66.95
70928;SHT31;58587;53.034;18.576;2023-04-25T16:11:18;10.78;67.20
70928;SHT31;58587;53.034;18.576;2023-04-25T16:13:43;10.82;67.73
70928;SHT31;58587;53.034;18.576;2023-04-25T16:16:09;10.65;68.63
70928;SHT31;58587;53.034;18.576;2023-04-25T16:18:35;10.64;68.13
70928;SHT31;58587;53.034;18.576;2023-04-25T16:21:01;10.61;68.20
70928;SHT31;58587;53.034;18.576;2023-04-25T16:23:26;10.61;68.85
70928;SHT31;58587;53.034;18.576;2023-04-25T16:25:51;10.54;69.86
70928;SHT31;58587;53.034;18.576;2023-04-25T16:28:19;10.53;70.98
70928;SHT31;58587;53.034;18.576;2023-04-25T16:30:44;10.41;72.46
70928;SHT31;58587;53.034;18.576;2023-04-25T16:33:10;10.43;72.94
70928;SHT31;58587;53.034;18.576;2023-04-25T16:35:35;10.45;73.80
70928;SHT31;58587;53.034;18.576;2023-04-25T16:38:01;10.34;74.68
70928;SHT31;58587;53.034;18.576;2023-04-25T16:40:27;10.31;74.88
70928;SHT31;58587;53.034;18.576;2023-04-25T16:42:52;10.29;75.20
70928;SHT31;58587;53.034;18.576;2023-04-25T16:45:17;10.13;75.80
70928;SHT31;58587;53.034;18.576;2023-04-25T16:47:44;10.20;75.80
70928;SHT31;58587;53.034;18.576;2023-04-25T16:50:12;10.30;75.57
70928;SHT31;58587;53.034;18.576;2023-04-25T16:52:38;10.27;75.67
70928;SHT31;58587;53.034;18.576;2023-04-25T16:55:03;10.23;75.66
70928;SHT31;58587;53.034;18.576;2023-04-25T16:57:29;10.34;75.40
70928;SHT31;58587;53.034;18.576;2023-04-25T16:59:54;10.21;75.39
70928;SHT31;58587;53.034;18.576;2023-04-25T17:02:20;10.29;75.59
70928;SHT31;58587;53.034;18.576;2023-04-25T17:04:46;10.21;75.84
70928;SHT31;58587;53.034;18.576;2023-04-25T17:07:11;10.34;76.24
70928;SHT31;58587;53.034;18.576;2023-04-25T17:09:36;10.30;75.86
70928;SHT31;58587;53.034;18.576;2023-04-25T17:12:03;10.33;75.85
70928;SHT31;58587;53.034;18.576;2023-04-25T17:14:29;10.36;75.60
70928;SHT31;58587;53.034;18.576;2023-04-25T17:16:56;10.38;75.97
70928;SHT31;58587;53.034;18.576;2023-04-25T17:19:21;10.38;76.24
70928;SHT31;58587;53.034;18.576;2023-04-25T17:21:46;10.37;75.91
70928;SHT31;58587;53.034;18.576;2023-04-25T17:24:12;10.40;76.11
70928;SHT31;58587;53.034;18.576;2023-04-25T17:26:39;10.40;76.58
70928;SHT31;58587;53.034;18.576;2023-04-25T17:29:05;10.41;76.72
70928;SHT31;58587;53.034;18.576;2023-04-25T17:31:30;10.40;76.07
70928;SHT31;58587;53.034;18.576;2023-04-25T17:33:55;10.36;76.67
70928;SHT31;58587;53.034;18.576;2023-04-25T17:36:21;10.34;77.18
70928;SHT31;58587;53.034;18.576;2023-04-25T17:38:47;10.34;77.86
70928;SHT31;58587;53.034;18.576;2023-04-25T17:41:12;10.31;77.69
70928;SHT31;58587;53.034;18.576;2023-04-25T17:43:39;10.20;77.16
70928;SHT31;58587;53.034;18.576;2023-04-25T17:46:04;10.14;78.19
70928;SHT31;58587;53.034;18.576;2023-04-25T17:48:29;10.10;78.50
70928;SHT31;58587;53.034;18.576;2023-04-25T17:50:56;10.06;78.22
70928;SHT31;58587;53.034;18.576;2023-04-25T17:53:22;10.02;78.72
70928;SHT31;58587;53.034;18.576;2023-04-25T17:55:47;10.06;78.58
70928;SHT31;58587;53.034;18.576;2023-04-25T17:58:14;10.09;78.26
70928;SHT31;58587;53.034;18.576;2023-04-25T18:00:40;10.13;78.22
70928;SHT31;58587;53.034;18.576;2023-04-25T18:03:05;10.16;78.45
70928;SHT31;58587;53.034;18.576;2023-04-25T18:05:31;10.20;78.92
70928;SHT31;58587;53.034;18.576;2023-04-25T18:07:57;10.16;78.45
70928;SHT31;58587;53.034;18.576;2023-04-25T18:10:22;10.17;77.81
70928;SHT31;58587;53.034;18.576;2023-04-25T18:12:47;10.11;77.98
70928;SHT31;58587;53.034;18.576;2023-04-25T18:15:14;10.11;77.96
70928;SHT31;58587;53.034;18.576;2023-04-25T18:17:40;10.13;78.01
70928;SHT31;58587;53.034;18.576;2023-04-25T18:20:08;10.10;77.11
70928;SHT31;58587;53.034;18.576;2023-04-25T18:22:36;9.99;77.05
70928;SHT31;58587;53.034;18.576;2023-04-25T18:25:02;9.99;76.71
70928;SHT31;58587;53.034;18.576;2023-04-25T18:27:29;10.02;76.23
70928;SHT31;58587;53.034;18.576;2023-04-25T18:29:55;10.03;76.49
70928;SHT31;58587;53.034;18.576;2023-04-25T18:32:20;10.00;76.62
70928;SHT31;58587;53.034;18.576;2023-04-25T18:34:45;9.99;76.95
70928;SHT31;58587;53.034;18.576;2023-04-25T18:37:14;9.96;78.12
70928;SHT31;58587;53.034;18.576;2023-04-25T18:39:39;9.85;77.04
70928;SHT31;58587;53.034;18.576;2023-04-25T18:42:05;9.83;77.43
70928;SHT31;58587;53.034;18.576;2023-04-25T18:44:30;9.75;76.99
70928;SHT31;58587;53.034;18.576;2023-04-25T18:46:57;9.55;75.07
70928;SHT31;58587;53.034;18.576;2023-04-25T18:49:23;9.58;75.27
70928;SHT31;58587;53.034;18.576;2023-04-25T18:51:48;9.60;75.36
70928;SHT31;58587;53.034;18.576;2023-04-25T18:54:13;9.52;77.54
70928;SHT31;58587;53.034;18.576;2023-04-25T18:56:39;9.34;80.03
70928;SHT31;58587;53.034;18.576;2023-04-25T18:59:05;9.25;80.41
70928;SHT31;58587;53.034;18.576;2023-04-25T19:01:30;9.17;80.51
70928;SHT31;58587;53.034;18.576;2023-04-25T19:03:56;9.14;82.45
70928;SHT31;58587;53.034;18.576;2023-04-25T19:06:26;9.15;83.66
70928;SHT31;58587;53.034;18.576;2023-04-25T19:08:53;9.12;82.12
70928;SHT31;58587;53.034;18.576;2023-04-25T19:11:20;9.07;82.63
70928;SHT31;58587;53.034;18.576;2023-04-25T19:13:46;9.01;83.53
70928;SHT31;58587;53.034;18.576;2023-04-25T19:16:12;8.98;83.24
70928;SHT31;58587;53.034;18.576;2023-04-25T19:18:37;8.84;84.51
70928;SHT31;58587;53.034;18.576;2023-04-25T19:21:03;8.64;83.97
70928;SHT31;58587;53.034;18.576;2023-04-25T19:23:31;8.76;86.15
70928;SHT31;58587;53.034;18.576;2023-04-25T19:25:56;8.80;85.62
70928;SHT31;58587;53.034;18.576;2023-04-25T19:28:21;8.73;85.32
70928;SHT31;58587;53.034;18.576;2023-04-25T19:30:47;8.68;85.11
70928;SHT31;58587;53.034;18.576;2023-04-25T19:33:12;8.67;85.45
70928;SHT31;58587;53.034;18.576;2023-04-25T19:35:39;8.68;86.31
70928;SHT31;58587;53.034;18.576;2023-04-25T19:38:05;8.66;85.93
70928;SHT31;58587;53.034;18.576;2023-04-25T19:40:31;8.46;86.48
70928;SHT31;58587;53.034;18.576;2023-04-25T19:42:56;8.60;86.41
70928;SHT31;58587;53.034;18.576;2023-04-25T19:45:22;8.63;86.53
70928;SHT31;58587;53.034;18.576;2023-04-25T19:47:47;8.67;86.41
70928;SHT31;58587;53.034;18.576;2023-04-25T19:50:13;8.64;86.56
70928;SHT31;58587;53.034;18.576;2023-04-25T19:52:38;8.68;86.80
70928;SHT31;58587;53.034;18.576;2023-04-25T19:55:04;8.61;86.18
70928;SHT31;58587;53.034;18.576;2023-04-25T19:57:31;8.61;86.79
70928;SHT31;58587;53.034;18.576;2023-04-25T20:00:03;8.59;86.79
70928;SHT31;58587;53.034;18.576;2023-04-25T20:02:29;8.54;86.60
70928;SHT31;58587;53.034;18.576;2023-04-25T20:04:55;8.60;86.73
70928;SHT31;58587;53.034;18.576;2023-04-25T20:07:20;8.57;87.31
70928;SHT31;58587;53.034;18.576;2023-04-25T20:09:47;8.49;87.01
70928;SHT31;58587;53.034;18.576;2023-04-25T20:12:13;8.50;87.21
70928;SHT31;58587;53.034;18.576;2023-04-25T20:14:39;8.40;86.28
70928;SHT31;58587;53.034;18.576;2023-04-25T20:17:05;8.43;86.61
70928;SHT31;58587;53.034;18.576;2023-04-25T20:19:30;8.44;86.90
70928;SHT31;58587;53.034;18.576;2023-04-25T20:21:57;8.43;87.39
70928;SHT31;58587;53.034;18.576;2023-04-25T20:24:22;8.42;87.41
70928;SHT31;58587;53.034;18.576;2023-04-25T20:26:48;8.43;86.94
70928;SHT31;58587;53.034;18.576;2023-04-25T20:29:13;8.40;87.47
70928;SHT31;58587;53.034;18.576;2023-04-25T20:31:39;8.40;87.69
70928;SHT31;58587;53.034;18.576;2023-04-25T20:34:04;8.43;87.57
70928;SHT31;58587;53.034;18.576;2023-04-25T20:36:30;8.40;86.99
70928;SHT31;58587;53.034;18.576;2023-04-25T20:38:56;8.33;88.04
70928;SHT31;58587;53.034;18.576;2023-04-25T20:41:22;8.32;88.05
70928;SHT31;58587;53.034;18.576;2023-04-25T20:43:47;8.22;88.00
70928;SHT31;58587;53.034;18.576;2023-04-25T20:46:14;8.23;88.09
70928;SHT31;58587;53.034;18.576;2023-04-25T20:48:40;8.22;88.08
70928;SHT31;58587;53.034;18.576;2023-04-25T20:51:06;8.25;88.13
70928;SHT31;58587;53.034;18.576;2023-04-25T20:53:32;8.09;88.20
70928;SHT31;58587;53.034;18.576;2023-04-25T20:55:57;8.09;88.22
70928;SHT31;58587;53.034;18.576;2023-04-25T20:58:24;8.06;87.78
70928;SHT31;58587;53.034;18.576;2023-04-25T21:00:49;7.96;88.01
70928;SHT31;58587;53.034;18.576;2023-04-25T21:03:15;7.96;88.15
70928;SHT31;58587;53.034;18.576;2023-04-25T21:05:40;7.81;87.25
70928;SHT31;58587;53.034;18.576;2023-04-25T21:08:06;7.89;87.78
70928;SHT31;58587;53.034;18.576;2023-04-25T21:10:31;7.77;87.52
70928;SHT31;58587;53.034;18.576;2023-04-25T21:12:57;7.69;87.68
70928;SHT31;58587;53.034;18.576;2023-04-25T21:15:22;7.72;87.86
70928;SHT31;58587;53.034;18.576;2023-04-25T21:17:49;7.64;87.30
70928;SHT31;58587;53.034;18.576;2023-04-25T21:20:19;7.61;87.89
70928;SHT31;58587;53.034;18.576;2023-04-25T21:22:46;7.59;87.51
70928;SHT31;58587;53.034;18.576;2023-04-25T21:25:22;7.54;87.16
70928;SHT31;58587;53.034;18.576;2023-04-25T21:27:56;7.43;87.39
70928;SHT31;58587;53.034;18.576;2023-04-25T21:30:23;7.40;87.37
70928;SHT31;58587;53.034;18.576;2023-04-25T21:32:49;7.37;87.13
70928;SHT31;58587;53.034;18.576;2023-04-25T21:35:16;7.26;86.99
70928;SHT31;58587;53.034;18.576;2023-04-25T21:37:42;7.21;87.52
70928;SHT31;58587;53.034;18.576;2023-04-25T21:40:08;7.21;87.50
70928;SHT31;58587;53.034;18.576;2023-04-25T21:42:34;7.17;88.04
70928;SHT31;58587;53.034;18.576;2023-04-25T21:45:01;7.14;87.91
70928;SHT31;58587;53.034;18.576;2023-04-25T21:47:27;7.14;87.43
70928;SHT31;58587;53.034;18.576;2023-04-25T21:49:52;7.04;87.70
70928;SHT31;58587;53.034;18.576;2023-04-25T21:52:17;6.97;87.22
70928;SHT31;58587;53.034;18.576;2023-04-25T21:54:43;6.89;86.89
70928;SHT31;58587;53.034;18.576;2023-04-25T21:57:08;6.85;87.05
70928;SHT31;58587;53.034;18.576;2023-04-25T21:59:35;6.75;86.66
70928;SHT31;58587;53.034;18.576;2023-04-25T22:02:01;6.65;85.99
70928;SHT31;58587;53.034;18.576;2023-04-25T22:04:26;6.62;86.56
70928;SHT31;58587;53.034;18.576;2023-04-25T22:06:51;6.56;87.03
